createdAt,value
2022-09-14T00:01:36.138Z,4.20
2022-09-14T00:04:08.608Z,3.85
2022-09-14T00:06:37.842Z,3.72
2022-09-14T00:09:06.925Z,3.90
2022-09-14T00:11:35.476Z,3.95
2022-09-14T00:14:07.781Z,4.25
2022-09-14T00:16:41.023Z,4.25
2022-09-14T00:19:22.940Z,4.32
2022-09-14T00:21:55.151Z,3.88
2022-09-14T00:24:22.492Z,3.55
2022-09-14T00:26:52.248Z,4.28
2022-09-14T00:29:18.865Z,4.55
2022-09-14T00:31:48.324Z,4.20
2022-09-14T00:34:16.253Z,4.68
2022-09-14T00:36:46.335Z,5.05
2022-09-14T00:39:13.627Z,4.70
2022-09-14T00:41:43.030Z,5.00
2022-09-14T00:44:14.845Z,4.88
2022-09-14T00:46:44.152Z,4.90
2022-09-14T00:49:32.708Z,4.40
2022-09-14T00:52:04.861Z,5.03
2022-09-14T00:54:31.448Z,4.80
2022-09-14T00:57:02.121Z,4.70
2022-09-14T00:59:32.916Z,5.10
2022-09-14T01:01:59.561Z,4.13
2022-09-14T01:04:28.361Z,4.22
2022-09-14T01:07:00.946Z,4.07
2022-09-14T01:09:40.748Z,3.90
2022-09-14T01:12:21.099Z,4.20
2022-09-14T01:15:05.749Z,4.13
2022-09-14T01:17:46.892Z,3.95
2022-09-14T01:20:24.745Z,3.88
2022-09-14T01:23:12.526Z,4.30
2022-09-14T01:26:00.384Z,4.20
2022-09-14T01:28:38.201Z,4.13
2022-09-14T01:31:20.577Z,4.20
2022-09-14T01:34:13.362Z,4.43
2022-09-14T01:36:45.714Z,3.80
2022-09-14T01:39:13.934Z,3.90
2022-09-14T01:41:42.432Z,4.78
2022-09-14T01:44:23.714Z,4.03
2022-09-14T01:47:05.172Z,4.18
2022-09-14T01:49:42.252Z,4.20
2022-09-14T01:52:21.702Z,4.20
2022-09-14T01:54:54.507Z,4.47
2022-09-14T01:57:41.977Z,4.45
2022-09-14T02:00:12.443Z,4.57
2022-09-14T02:02:44.446Z,4.20
2022-09-14T02:05:29.514Z,4.40
2022-09-14T02:07:58.708Z,4.80
2022-09-14T02:10:29.222Z,4.50
2022-09-14T02:12:56.103Z,4.50
2022-09-14T02:15:23.210Z,4.47
2022-09-14T02:17:49.840Z,4.10
2022-09-14T02:20:28.900Z,4.28
2022-09-14T02:22:57.887Z,4.55
2022-09-14T02:25:26.658Z,3.80
2022-09-14T02:27:55.459Z,4.10
2022-09-14T02:30:24.663Z,4.03
2022-09-14T02:33:08.465Z,3.88
2022-09-14T02:35:41.240Z,3.67
2022-09-14T02:38:30.983Z,3.72
2022-09-14T02:41:12.081Z,4.00
2022-09-14T02:43:43.972Z,4.00
2022-09-14T02:46:29.243Z,4.15
2022-09-14T02:49:16.099Z,4.38
2022-09-14T02:52:02.570Z,3.85
2022-09-14T02:54:39.462Z,4.20
2022-09-14T02:57:06.251Z,4.10
2022-09-14T02:59:32.728Z,4.82
2022-09-14T03:02:00.944Z,4.10
2022-09-14T03:04:28.440Z,4.35
2022-09-14T03:06:54.932Z,4.57
2022-09-14T03:09:21.353Z,4.22
2022-09-14T03:11:47.832Z,4.38
2022-09-14T03:14:14.344Z,4.45
2022-09-14T03:16:40.828Z,4.20
2022-09-14T03:19:07.372Z,4.40
2022-09-14T03:21:36.447Z,4.32
2022-09-14T03:24:03.205Z,4.38
2022-09-14T03:26:29.753Z,4.03
2022-09-14T03:28:58.592Z,4.60
2022-09-14T03:31:26.479Z,4.00
2022-09-14T03:33:58.368Z,4.07
2022-09-14T03:36:26.904Z,3.75
2022-09-14T03:38:55.913Z,4.03
2022-09-14T03:41:23.261Z,4.13
2022-09-14T03:43:50.228Z,4.20
2022-09-14T03:46:21.616Z,3.88
2022-09-14T03:48:48.599Z,4.40
2022-09-14T03:51:16.041Z,4.10
2022-09-14T03:53:44.838Z,4.38
2022-09-14T03:56:17.475Z,4.38
2022-09-14T03:58:45.534Z,4.47
2022-09-14T04:01:14.868Z,4.30
2022-09-14T04:03:44.229Z,4.35
2022-09-14T04:06:11.375Z,4.10
2022-09-14T04:08:39.844Z,4.10
2022-09-14T04:11:11.764Z,3.90
2022-09-14T04:13:39.274Z,3.75
2022-09-14T04:16:05.721Z,4.30
2022-09-14T04:18:32.888Z,3.83
2022-09-14T04:21:08.464Z,4.47
2022-09-14T04:24:10.262Z,4.45
2022-09-14T04:26:27.119Z,4.05
2022-09-14T04:28:53.972Z,4.28
2022-09-14T04:31:20.630Z,4.47
2022-09-14T04:33:50.492Z,4.50
2022-09-14T04:36:19.796Z,4.60
2022-09-14T04:38:46.851Z,4.78
2022-09-14T04:41:18.168Z,5.13
2022-09-14T04:43:46.063Z,5.00
2022-09-14T04:46:18.833Z,5.22
2022-09-14T04:48:45.715Z,6.15
2022-09-14T04:51:16.692Z,5.68
2022-09-14T04:53:44.635Z,6.10
2022-09-14T04:56:13.164Z,5.32
2022-09-14T04:58:46.257Z,5.43
2022-09-14T05:01:21.995Z,5.70
2022-09-14T05:03:48.829Z,5.78
2022-09-14T05:06:26.805Z,6.18
2022-09-14T05:08:54.516Z,5.70
2022-09-14T05:11:26.692Z,5.65
2022-09-14T05:13:55.027Z,5.80
2022-09-14T05:16:23.255Z,6.00
2022-09-14T05:18:51.707Z,5.78
2022-09-14T05:21:20.095Z,5.93
2022-09-14T05:23:46.971Z,6.53
2022-09-14T05:26:14.419Z,6.03
2022-09-14T05:28:41.169Z,6.47
2022-09-14T05:31:10.324Z,6.55
2022-09-14T05:33:37.066Z,6.43
2022-09-14T05:36:08.224Z,6.57
2022-09-14T05:38:36.315Z,6.53
2022-09-14T05:41:02.985Z,7.10
2022-09-14T05:43:29.993Z,6.85
2022-09-14T05:45:56.489Z,6.68
2022-09-14T05:48:23.007Z,7.18
2022-09-14T05:50:58.089Z,6.38
2022-09-14T05:53:26.703Z,5.80
2022-09-14T05:56:10.693Z,6.32
2022-09-14T06:01:41.527Z,5.97
2022-09-14T06:04:11.103Z,6.23
2022-09-14T06:06:37.586Z,6.00
2022-09-14T06:09:04.757Z,6.20
2022-09-14T06:11:36.125Z,5.72
2022-09-14T06:14:02.994Z,6.10
2022-09-14T06:16:29.681Z,6.20
2022-09-14T06:18:58.732Z,5.97
2022-09-14T06:21:29.405Z,6.45
2022-09-14T06:23:56.059Z,5.45
2022-09-14T06:26:22.778Z,6.13
2022-09-14T06:28:49.424Z,5.63
2022-09-14T06:31:17.721Z,6.22
2022-09-14T06:33:48.120Z,6.65
2022-09-14T06:36:17.828Z,6.28
2022-09-14T06:38:44.402Z,6.57
2022-09-14T06:41:13.671Z,5.72
2022-09-14T06:43:42.217Z,6.15
2022-09-14T06:46:20.085Z,6.60
2022-09-14T06:48:52.907Z,5.68
2022-09-14T06:51:29.983Z,5.97
2022-09-14T06:54:01.409Z,5.68
2022-09-14T06:56:33.526Z,6.03
2022-09-14T06:59:00.076Z,5.40
2022-09-14T07:01:29.882Z,5.57
2022-09-14T07:03:58.062Z,5.03
2022-09-14T07:06:26.527Z,4.90
2022-09-14T07:08:53.529Z,5.07
2022-09-14T07:11:23.592Z,4.50
2022-09-14T07:13:50.017Z,4.20
2022-09-14T07:16:16.906Z,4.05
2022-09-14T07:18:43.393Z,4.20
2022-09-14T07:21:15.077Z,3.88
2022-09-14T07:23:46.300Z,3.45
2022-09-14T07:26:15.444Z,3.08
2022-09-14T07:28:43.594Z,3.30
2022-09-14T07:31:22.804Z,3.30
2022-09-14T07:33:54.036Z,3.65
2022-09-14T07:36:21.543Z,3.80
2022-09-14T07:38:52.986Z,3.55
2022-09-14T07:41:29.837Z,3.20
2022-09-14T07:44:00.311Z,3.08
2022-09-14T07:46:33.236Z,2.67
2022-09-14T07:49:04.877Z,3.03
2022-09-14T07:51:32.634Z,2.80
2022-09-14T07:54:01.984Z,2.67
2022-09-14T07:56:29.019Z,2.75
2022-09-14T07:59:11.557Z,3.38
2022-09-14T08:01:44.240Z,2.97
2022-09-14T08:04:11.074Z,2.92
2022-09-14T08:06:37.703Z,2.85
2022-09-14T08:09:11.149Z,2.55
2022-09-14T08:11:38.028Z,2.78
2022-09-14T08:14:07.273Z,2.58
2022-09-14T08:16:34.861Z,2.83
2022-09-14T08:19:04.016Z,2.45
2022-09-14T08:21:32.145Z,2.25
2022-09-14T08:24:02.453Z,3.03
2022-09-14T08:26:30.023Z,2.80
2022-09-14T08:28:57.270Z,3.03
2022-09-14T08:31:25.358Z,2.70
2022-09-14T08:33:54.924Z,2.20
2022-09-14T08:36:22.641Z,2.10
2022-09-14T08:38:49.183Z,1.65
2022-09-14T08:41:25.366Z,1.70
2022-09-14T08:43:52.417Z,1.60
2022-09-14T08:46:49.647Z,1.90
2022-09-14T08:49:38.002Z,1.40
2022-09-14T08:52:05.292Z,1.40
2022-09-14T08:54:37.168Z,1.35
2022-09-14T08:57:39.160Z,1.63
2022-09-14T09:00:14.932Z,1.48
2022-09-14T09:02:50.643Z,1.60
2022-09-14T09:05:49.708Z,1.73
2022-09-14T09:08:24.622Z,1.67
2022-09-14T09:10:54.315Z,1.75
2022-09-14T09:13:25.439Z,1.65
2022-09-14T09:15:55.076Z,1.77
2022-09-14T09:18:43.056Z,1.45
2022-09-14T09:21:20.704Z,1.73
2022-09-14T09:23:47.142Z,1.88
2022-09-14T09:26:28.226Z,1.52
2022-09-14T09:28:57.988Z,1.50
2022-09-14T09:31:38.921Z,2.05
2022-09-14T09:34:06.411Z,1.60
2022-09-14T09:36:39.189Z,2.00
2022-09-14T09:39:06.152Z,1.97
2022-09-14T09:41:57.602Z,1.60
2022-09-14T09:44:26.300Z,1.40
2022-09-14T09:46:59.333Z,1.40
2022-09-14T09:49:31.486Z,1.52
2022-09-14T09:52:19.623Z,1.40
2022-09-14T09:54:52.352Z,1.60
2022-09-14T09:57:21.643Z,1.30
2022-09-14T09:59:48.578Z,1.48
2022-09-14T10:02:32.170Z,1.60
2022-09-14T10:07:30.115Z,1.13
2022-09-14T10:09:58.693Z,1.33
2022-09-14T10:12:25.440Z,1.33
2022-09-14T10:15:05.327Z,1.20
2022-09-14T10:17:31.831Z,1.60
2022-09-14T10:19:59.017Z,1.50
2022-09-14T10:22:37.957Z,1.25
2022-09-14T10:25:22.943Z,1.50
2022-09-14T10:27:58.938Z,1.67
2022-09-14T10:30:38.204Z,1.75
2022-09-14T10:33:08.911Z,1.42
2022-09-14T10:35:45.879Z,1.13
2022-09-14T10:38:32.453Z,1.10
2022-09-14T10:41:31.266Z,1.50
2022-09-14T10:44:19.685Z,1.52
2022-09-14T10:47:04.672Z,1.60
2022-09-14T10:49:44.150Z,1.50
2022-09-14T10:52:13.999Z,1.70
2022-09-14T10:55:07.626Z,1.33
2022-09-14T10:57:49.789Z,1.60
2022-09-14T11:00:23.683Z,1.23
2022-09-14T11:03:16.217Z,1.52
2022-09-14T11:06:18.065Z,1.55
2022-09-14T11:09:05.509Z,1.45
2022-09-14T11:11:58.090Z,1.27
2022-09-14T11:14:42.900Z,1.52
2022-09-14T11:17:35.602Z,1.50
2022-09-14T11:20:26.587Z,1.58
2022-09-14T11:23:18.552Z,1.58
2022-09-14T11:26:08.276Z,1.58
2022-09-14T11:28:42.381Z,1.60
2022-09-14T11:31:55.291Z,1.42
2022-09-14T11:34:36.940Z,2.53
2022-09-14T11:37:19.180Z,2.00
2022-09-14T11:39:52.145Z,1.70
2022-09-14T11:42:27.868Z,1.80
2022-09-14T11:45:02.339Z,1.52
2022-09-14T11:47:44.225Z,1.73
2022-09-14T11:50:33.056Z,1.67
2022-09-14T11:53:15.062Z,1.55
2022-09-14T11:55:50.132Z,1.65
2022-09-14T11:58:31.297Z,1.17
2022-09-14T12:01:25.765Z,1.50
2022-09-14T12:03:54.245Z,1.10
2022-09-14T12:06:29.954Z,1.70
2022-09-14T12:09:21.126Z,1.85
2022-09-14T12:11:53.750Z,1.63
2022-09-14T12:14:32.670Z,1.80
2022-09-14T12:17:22.813Z,1.70
2022-09-14T12:22:39.420Z,1.40
2022-09-14T12:27:36.823Z,1.80
2022-09-14T12:30:38.409Z,1.20
2022-09-14T12:33:34.798Z,1.70
2022-09-14T12:38:31.880Z,1.40
2022-09-14T12:41:09.443Z,1.30
2022-09-14T12:43:35.841Z,1.30
2022-09-14T12:46:04.093Z,1.27
2022-09-14T12:48:45.916Z,2.00
2022-09-14T12:51:36.594Z,1.70
2022-09-14T12:54:09.030Z,1.48
2022-09-14T12:57:02.707Z,1.55
2022-09-14T12:59:52.943Z,1.70
2022-09-14T13:03:05.796Z,1.60
2022-09-14T13:05:34.292Z,1.35
2022-09-14T13:08:01.737Z,1.75
2022-09-14T13:10:34.490Z,1.60
2022-09-14T13:13:05.381Z,1.83
2022-09-14T13:15:37.953Z,1.90
2022-09-14T13:18:17.958Z,1.67
2022-09-14T13:20:53.127Z,1.50
2022-09-14T13:23:42.133Z,1.65
2022-09-14T13:26:18.982Z,1.50
2022-09-14T13:28:48.000Z,1.67
2022-09-14T13:31:19.044Z,1.73
2022-09-14T13:33:50.772Z,1.65
2022-09-14T13:36:23.940Z,1.90
2022-09-14T13:38:53.184Z,1.50
2022-09-14T13:41:24.599Z,1.48
2022-09-14T13:43:55.991Z,1.90
2022-09-14T13:46:24.535Z,1.48
2022-09-14T13:48:52.313Z,1.67
2022-09-14T13:51:26.182Z,1.52
2022-09-14T13:54:15.779Z,1.90
2022-09-14T13:56:42.393Z,1.73
2022-09-14T13:59:09.099Z,1.75
2022-09-14T14:01:39.340Z,1.70
2022-09-14T14:04:24.066Z,1.85
2022-09-14T14:07:14.622Z,1.60
2022-09-14T14:09:53.314Z,1.52
2022-09-14T14:12:28.490Z,1.88
2022-09-14T14:14:58.068Z,1.55
2022-09-14T14:17:30.506Z,1.75
2022-09-14T14:19:59.430Z,1.75
2022-09-14T14:22:33.700Z,1.70
2022-09-14T14:25:17.040Z,1.50
2022-09-14T14:27:48.508Z,2.35
2022-09-14T14:30:17.640Z,1.80
2022-09-14T14:32:48.920Z,1.75
2022-09-14T14:35:18.622Z,1.50
2022-09-14T14:37:45.016Z,1.45
2022-09-14T14:40:12.731Z,1.70
2022-09-14T14:42:39.833Z,1.42
2022-09-14T14:45:07.095Z,2.30
2022-09-14T14:47:33.663Z,2.00
2022-09-14T14:50:00.276Z,1.50
2022-09-14T14:52:26.868Z,1.98
2022-09-14T14:54:53.301Z,1.77
2022-09-14T14:57:19.712Z,1.73
2022-09-14T14:59:47.012Z,1.45
2022-09-14T15:02:13.430Z,1.40
2022-09-14T15:04:42.275Z,1.75
2022-09-14T15:07:08.772Z,1.33
2022-09-14T15:09:35.465Z,1.60
2022-09-14T15:12:02.172Z,1.67
2022-09-14T15:14:31.255Z,1.60
2022-09-14T15:17:00.077Z,1.92
2022-09-14T15:19:26.987Z,1.80
2022-09-14T15:21:57.281Z,1.88
2022-09-14T15:24:27.124Z,2.08
2022-09-14T15:26:54.180Z,1.60
2022-09-14T15:29:20.619Z,1.92
2022-09-14T15:31:47.159Z,1.90
2022-09-14T15:34:16.133Z,1.73
2022-09-14T15:36:51.633Z,1.52
2022-09-14T15:39:23.341Z,1.58
2022-09-14T15:41:52.669Z,1.80
2022-09-14T15:44:19.635Z,1.40
2022-09-14T15:46:46.886Z,1.73
2022-09-14T15:49:17.918Z,1.85
2022-09-14T15:51:46.382Z,1.25
2022-09-14T15:54:13.542Z,1.88
2022-09-14T15:56:40.369Z,1.50
2022-09-14T15:59:07.325Z,1.60
2022-09-14T16:01:33.953Z,1.27
2022-09-14T16:04:10.866Z,1.75
2022-09-14T16:06:38.644Z,1.40
2022-09-14T16:09:07.253Z,1.70
2022-09-14T16:11:35.433Z,1.50
2022-09-14T16:14:07.441Z,1.33
2022-09-14T16:16:35.284Z,1.60
2022-09-14T16:19:10.850Z,1.70
2022-09-14T16:21:37.839Z,1.70
2022-09-14T16:24:07.733Z,1.90
2022-09-14T16:26:38.210Z,1.75
2022-09-14T16:29:08.292Z,2.30
2022-09-14T16:31:37.499Z,3.70
2022-09-14T16:34:12.939Z,1.88
2022-09-14T16:36:40.633Z,1.85
2022-09-14T16:39:11.373Z,1.45
2022-09-14T16:41:40.408Z,1.27
2022-09-14T16:44:06.984Z,1.00
2022-09-14T16:46:34.180Z,1.23
2022-09-14T16:49:00.793Z,1.40
2022-09-14T16:51:29.878Z,0.93
2022-09-14T16:53:57.607Z,1.20
2022-09-14T16:56:26.584Z,1.13
2022-09-14T16:58:55.084Z,1.33
2022-09-14T17:01:28.583Z,1.50
2022-09-14T17:06:26.100Z,1.10
2022-09-14T17:08:54.764Z,1.20
2022-09-14T17:11:21.487Z,1.17
2022-09-14T17:13:47.970Z,1.20
2022-09-14T17:16:20.590Z,1.73
2022-09-14T17:18:51.122Z,1.40
2022-09-14T17:21:23.392Z,1.10
2022-09-14T17:23:50.214Z,1.13
2022-09-14T17:26:19.229Z,1.50
2022-09-14T17:28:47.443Z,1.45
2022-09-14T17:31:18.645Z,1.48
2022-09-14T17:33:45.954Z,1.50
2022-09-14T17:36:14.648Z,1.33
2022-09-14T17:38:42.766Z,1.50
2022-09-14T17:41:12.076Z,1.50
2022-09-14T17:43:40.183Z,1.20
2022-09-14T17:46:09.884Z,1.33
2022-09-14T17:48:38.678Z,1.23
2022-09-14T17:51:14.465Z,1.55
2022-09-14T17:53:44.016Z,1.95
2022-09-14T17:56:15.819Z,1.90
2022-09-14T17:58:43.596Z,1.80
2022-09-14T18:01:14.909Z,2.03
2022-09-14T18:03:44.026Z,2.00
2022-09-14T18:06:12.487Z,2.42
2022-09-14T18:08:42.242Z,1.52
2022-09-14T18:11:17.003Z,1.40
2022-09-14T18:13:46.172Z,1.58
2022-09-14T18:16:14.877Z,1.52
2022-09-14T18:18:42.406Z,1.70
2022-09-14T18:21:11.815Z,1.83
2022-09-14T18:23:38.313Z,1.58
2022-09-14T18:26:06.807Z,1.55
2022-09-14T18:28:34.616Z,1.75
2022-09-14T18:31:07.063Z,1.52
2022-09-14T18:33:33.966Z,1.75
2022-09-14T18:36:00.773Z,1.70
2022-09-14T18:38:30.097Z,1.50
2022-09-14T18:41:06.025Z,1.77
2022-09-14T18:43:32.802Z,1.75
2022-09-14T18:45:59.306Z,1.77
2022-09-14T18:48:26.270Z,1.92
2022-09-14T18:50:55.387Z,1.90
2022-09-14T18:53:21.770Z,2.85
2022-09-14T18:55:48.206Z,3.30
2022-09-14T18:58:16.863Z,2.65
2022-09-14T19:00:46.564Z,4.93
2022-09-14T19:03:13.389Z,2.40
2022-09-14T19:05:43.627Z,2.15
2022-09-14T19:08:13.436Z,2.13
2022-09-14T19:10:40.252Z,2.17
2022-09-14T19:13:07.783Z,2.22
2022-09-14T19:15:34.442Z,2.45
2022-09-14T19:18:00.958Z,3.30
2022-09-14T19:20:43.030Z,2.90
2022-09-14T19:23:13.795Z,2.55
2022-09-14T19:25:40.509Z,2.50
2022-09-14T19:28:07.633Z,2.50
2022-09-14T19:30:36.404Z,2.47
2022-09-14T19:33:03.057Z,2.17
2022-09-14T19:35:30.215Z,1.80
2022-09-14T19:37:57.838Z,1.98
2022-09-14T19:40:24.560Z,2.00
2022-09-14T19:42:51.917Z,3.33
2022-09-14T19:45:18.752Z,3.13
2022-09-14T19:47:45.698Z,2.50
2022-09-14T19:50:12.194Z,2.45
2022-09-14T19:52:38.688Z,2.20
2022-09-14T19:55:05.584Z,2.30
2022-09-14T19:57:32.303Z,2.30
2022-09-14T19:59:58.754Z,2.10
2022-09-14T20:02:25.556Z,2.42
2022-09-14T20:04:52.238Z,2.75
2022-09-14T20:07:19.102Z,1.92
2022-09-14T20:09:45.696Z,2.20
2022-09-14T20:12:12.335Z,2.00
2022-09-14T20:14:38.817Z,2.00
2022-09-14T20:17:06.446Z,2.10
2022-09-14T20:19:33.127Z,1.90
2022-09-14T20:21:59.542Z,2.13
2022-09-14T20:24:28.177Z,2.50
2022-09-14T20:26:59.337Z,2.55
2022-09-14T20:29:30.032Z,2.42
2022-09-14T20:31:57.168Z,2.55
2022-09-14T20:34:23.747Z,2.92
2022-09-14T20:36:52.093Z,3.05
2022-09-14T20:39:19.973Z,2.85
2022-09-14T20:41:46.768Z,3.15
2022-09-14T20:44:13.849Z,3.53
2022-09-14T20:46:43.713Z,4.38
2022-09-14T20:49:12.413Z,4.03
2022-09-14T20:51:39.836Z,3.13
2022-09-14T20:54:10.444Z,3.60
2022-09-14T20:56:37.192Z,3.60
2022-09-14T20:59:09.510Z,2.90
2022-09-14T21:01:38.296Z,2.60
2022-09-14T21:04:09.082Z,2.90
2022-09-14T21:06:37.948Z,9.15
2022-09-14T21:09:08.801Z,16.25
2022-09-14T21:11:35.640Z,12.90
2022-09-14T21:14:02.566Z,21.65
2022-09-14T21:16:37.772Z,6.75
2022-09-14T21:19:07.188Z,3.50
2022-09-14T21:21:34.216Z,2.90
2022-09-14T21:24:05.546Z,4.15
2022-09-14T21:26:34.678Z,2.80
2022-09-14T21:29:06.306Z,3.10
2022-09-14T21:31:34.990Z,5.25
2022-09-14T21:34:02.867Z,3.45
2022-09-14T21:36:35.956Z,3.60
2022-09-14T21:39:08.459Z,2.97
2022-09-14T21:41:35.922Z,2.85
2022-09-14T21:44:02.714Z,3.10
2022-09-14T21:46:29.237Z,3.90
2022-09-14T21:48:56.612Z,4.45
2022-09-14T21:51:31.800Z,3.25
2022-09-14T21:54:00.442Z,3.17
2022-09-14T21:56:31.563Z,3.20
2022-09-14T21:59:02.400Z,2.83
2022-09-14T22:01:29.953Z,3.20
2022-09-14T22:03:57.446Z,3.03
2022-09-14T22:06:31.157Z,2.95
2022-09-14T22:11:31.259Z,2.50
2022-09-14T22:14:06.082Z,2.80
2022-09-14T22:16:34.994Z,2.50
2022-09-14T22:19:06.614Z,2.58
2022-09-14T22:21:35.906Z,2.47
2022-09-14T22:24:14.631Z,2.70
2022-09-14T22:26:42.312Z,3.00
2022-09-14T22:29:09.099Z,2.85
2022-09-14T22:31:38.091Z,3.00
2022-09-14T22:34:08.130Z,2.97
2022-09-14T22:36:37.664Z,2.60
2022-09-14T22:39:05.083Z,3.05
2022-09-14T22:41:31.659Z,2.75
2022-09-14T22:43:58.122Z,2.83
2022-09-14T22:46:25.399Z,2.67
2022-09-14T22:48:53.149Z,2.63
2022-09-14T22:51:22.369Z,2.90
2022-09-14T22:53:49.395Z,2.90
2022-09-14T22:56:21.897Z,2.30
2022-09-14T22:58:49.485Z,2.22
2022-09-14T23:01:39.387Z,7.50
2022-09-14T23:04:09.333Z,3.50
2022-09-14T23:06:38.502Z,2.47
2022-09-14T23:09:06.118Z,2.42
2022-09-14T23:11:32.907Z,2.13
2022-09-14T23:13:59.346Z,1.83
2022-09-14T23:16:28.872Z,1.73
2022-09-14T23:18:58.814Z,1.40
2022-09-14T23:21:28.604Z,1.48
2022-09-14T23:24:00.792Z,2.03
2022-09-14T23:26:27.800Z,1.80
2022-09-14T23:28:58.105Z,2.70
2022-09-14T23:31:25.665Z,1.73
2022-09-14T23:33:53.906Z,1.52
2022-09-14T23:36:24.944Z,1.65
2022-09-14T23:38:52.322Z,1.70
2022-09-14T23:41:22.554Z,1.48
2022-09-14T23:43:49.533Z,1.70
2022-09-14T23:46:19.126Z,1.33
2022-09-14T23:48:46.718Z,1.38
2022-09-14T23:51:15.407Z,1.20
2022-09-14T23:53:44.768Z,1.30
2022-09-14T23:56:11.425Z,1.52
2022-09-14T23:58:39.789Z,1.25
